sensor_id;sensor_type;location;lat;lon;timestamp;P1;durP1;ratioP1;P2;durP2;ratioP2
4214;SDS011;2121;48.062;7.850;2023-06-24T00:02:16;6.77;;;5.37;;
4214;SDS011;2121;48.062;7.850;2023-06-24T00:04:42;7.07;;;5.40;;
4214;SDS011;2121;48.062;7.850;2023-06-24T00:07:08;6.30;;;5.60;;
4214;SDS011;2121;48.062;7.850;2023-06-24T00:09:33;8.93;;;7.23;;
4214;SDS011;2121;48.062;7.850;2023-06-24T00:11:59;6.17;;;5.43;;
4214;SDS011;2121;48.062;7.850;2023-06-24T00:14:27;8.20;;;5.60;;
4214;SDS011;2121;48.062;7.850;2023-06-24T00:16:53;6.83;;;5.67;;
4214;SDS011;2121;48.062;7.850;2023-06-24T00:19:20;6.50;;;5.80;;
4214;SDS011;2121;48.062;7.850;2023-06-24T00:21:48;5.80;;;5.30;;
4214;SDS011;2121;48.062;7.850;2023-06-24T00:24:16;6.67;;;6.00;;
4214;SDS011;2121;48.062;7.850;2023-06-24T00:26:44;6.80;;;5.13;;
4214;SDS011;2121;48.062;7.850;2023-06-24T00:29:13;7.83;;;5.73;;
4214;SDS011;2121;48.062;7.850;2023-06-24T00:31:40;5.23;;;4.80;;
4214;SDS011;2121;48.062;7.850;2023-06-24T00:34:07;5.27;;;4.77;;
4214;SDS011;2121;48.062;7.850;2023-06-24T00:36:33;10.10;;;5.73;;
4214;SDS011;2121;48.062;7.850;2023-06-24T00:39:00;6.53;;;5.93;;
4214;SDS011;2121;48.062;7.850;2023-06-24T00:41:27;6.80;;;5.50;;
4214;SDS011;2121;48.062;7.850;2023-06-24T00:43:53;8.50;;;4.63;;
4214;SDS011;2121;48.062;7.850;2023-06-24T00:46:19;7.20;;;5.33;;
4214;SDS011;2121;48.062;7.850;2023-06-24T00:48:45;6.20;;;5.40;;
4214;SDS011;2121;48.062;7.850;2023-06-24T00:51:10;6.47;;;5.53;;
4214;SDS011;2121;48.062;7.850;2023-06-24T00:53:37;6.10;;;5.50;;
4214;SDS011;2121;48.062;7.850;2023-06-24T00:56:03;6.13;;;5.53;;
4214;SDS011;2121;48.062;7.850;2023-06-24T00:58:31;5.63;;;5.13;;
4214;SDS011;2121;48.062;7.850;2023-06-24T01:00:59;9.17;;;5.50;;
4214;SDS011;2121;48.062;7.850;2023-06-24T01:03:26;7.57;;;6.00;;
4214;SDS011;2121;48.062;7.850;2023-06-24T01:05:56;6.93;;;6.20;;
4214;SDS011;2121;48.062;7.850;2023-06-24T01:08:22;6.20;;;5.60;;
4214;SDS011;2121;48.062;7.850;2023-06-24T01:10:48;6.17;;;5.57;;
4214;SDS011;2121;48.062;7.850;2023-06-24T01:13:18;5.83;;;5.23;;
4214;SDS011;2121;48.062;7.850;2023-06-24T01:15:44;5.83;;;5.33;;
4214;SDS011;2121;48.062;7.850;2023-06-24T01:18:13;6.03;;;5.20;;
4214;SDS011;2121;48.062;7.850;2023-06-24T01:21:05;6.20;;;5.60;;
4214;SDS011;2121;48.062;7.850;2023-06-24T01:24:04;6.60;;;5.50;;
4214;SDS011;2121;48.062;7.850;2023-06-24T01:32:45;17.03;;;5.30;;
4214;SDS011;2121;48.062;7.850;2023-06-24T01:35:25;6.77;;;5.63;;
4214;SDS011;2121;48.062;7.850;2023-06-24T01:37:57;9.40;;;6.27;;
4214;SDS011;2121;48.062;7.850;2023-06-24T01:43:02;10.50;;;5.57;;
4214;SDS011;2121;48.062;7.850;2023-06-24T01:45:32;7.80;;;6.90;;
4214;SDS011;2121;48.062;7.850;2023-06-24T01:48:09;5.80;;;5.23;;
4214;SDS011;2121;48.062;7.850;2023-06-24T01:50:59;5.83;;;5.23;;
4214;SDS011;2121;48.062;7.850;2023-06-24T01:53:32;13.47;;;5.80;;
4214;SDS011;2121;48.062;7.850;2023-06-24T01:56:03;7.90;;;6.43;;
4214;SDS011;2121;48.062;7.850;2023-06-24T01:58:32;12.13;;;6.23;;
4214;SDS011;2121;48.062;7.850;2023-06-24T02:01:00;7.03;;;6.30;;
4214;SDS011;2121;48.062;7.850;2023-06-24T02:03:27;8.60;;;5.90;;
4214;SDS011;2121;48.062;7.850;2023-06-24T02:05:54;5.93;;;5.43;;
4214;SDS011;2121;48.062;7.850;2023-06-24T02:08:21;6.57;;;5.93;;
4214;SDS011;2121;48.062;7.850;2023-06-24T02:10:48;10.00;;;6.73;;
4214;SDS011;2121;48.062;7.850;2023-06-24T02:13:16;8.83;;;5.80;;
4214;SDS011;2121;48.062;7.850;2023-06-24T02:15:43;6.47;;;5.50;;
4214;SDS011;2121;48.062;7.850;2023-06-24T02:18:12;20.47;;;6.80;;
4214;SDS011;2121;48.062;7.850;2023-06-24T02:20:40;7.67;;;6.83;;
4214;SDS011;2121;48.062;7.850;2023-06-24T02:23:09;7.77;;;6.60;;
4214;SDS011;2121;48.062;7.850;2023-06-24T02:25:37;7.00;;;6.30;;
4214;SDS011;2121;48.062;7.850;2023-06-24T02:28:05;7.27;;;6.03;;
4214;SDS011;2121;48.062;7.850;2023-06-24T02:30:34;9.00;;;5.87;;
4214;SDS011;2121;48.062;7.850;2023-06-24T02:33:02;6.83;;;6.20;;
4214;SDS011;2121;48.062;7.850;2023-06-24T02:35:28;8.80;;;5.90;;
4214;SDS011;2121;48.062;7.850;2023-06-24T02:37:54;10.43;;;6.10;;
4214;SDS011;2121;48.062;7.850;2023-06-24T02:40:20;6.13;;;5.53;;
4214;SDS011;2121;48.062;7.850;2023-06-24T02:42:46;7.60;;;6.80;;
4214;SDS011;2121;48.062;7.850;2023-06-24T02:45:11;6.50;;;5.80;;
4214;SDS011;2121;48.062;7.850;2023-06-24T02:47:37;6.70;;;5.97;;
4214;SDS011;2121;48.062;7.850;2023-06-24T02:50:09;7.10;;;5.90;;
4214;SDS011;2121;48.062;7.850;2023-06-24T02:52:35;7.33;;;6.43;;
4214;SDS011;2121;48.062;7.850;2023-06-24T02:55:02;9.23;;;5.47;;
4214;SDS011;2121;48.062;7.850;2023-06-24T02:57:29;7.20;;;6.50;;
4214;SDS011;2121;48.062;7.850;2023-06-24T02:59:57;8.00;;;6.80;;
4214;SDS011;2121;48.062;7.850;2023-06-24T03:02:23;7.63;;;5.70;;
4214;SDS011;2121;48.062;7.850;2023-06-24T03:04:52;6.80;;;6.13;;
4214;SDS011;2121;48.062;7.850;2023-06-24T03:07:18;6.20;;;5.33;;
4214;SDS011;2121;48.062;7.850;2023-06-24T03:09:47;6.00;;;5.50;;
4214;SDS011;2121;48.062;7.850;2023-06-24T03:12:13;7.23;;;6.33;;
4214;SDS011;2121;48.062;7.850;2023-06-24T03:14:39;9.03;;;6.77;;
4214;SDS011;2121;48.062;7.850;2023-06-24T03:17:04;7.10;;;6.40;;
4214;SDS011;2121;48.062;7.850;2023-06-24T03:19:30;8.43;;;6.27;;
4214;SDS011;2121;48.062;7.850;2023-06-24T03:21:56;7.63;;;6.70;;
4214;SDS011;2121;48.062;7.850;2023-06-24T03:24:21;13.83;;;7.40;;
4214;SDS011;2121;48.062;7.850;2023-06-24T03:26:47;12.10;;;6.50;;
4214;SDS011;2121;48.062;7.850;2023-06-24T03:29:15;10.50;;;6.57;;
4214;SDS011;2121;48.062;7.850;2023-06-24T03:31:41;9.43;;;6.60;;
4214;SDS011;2121;48.062;7.850;2023-06-24T03:34:09;8.43;;;6.27;;
4214;SDS011;2121;48.062;7.850;2023-06-24T03:36:35;7.57;;;6.50;;
4214;SDS011;2121;48.062;7.850;2023-06-24T03:39:03;10.77;;;6.80;;
4214;SDS011;2121;48.062;7.850;2023-06-24T03:41:30;6.87;;;6.00;;
4214;SDS011;2121;48.062;7.850;2023-06-24T03:43:56;8.10;;;7.30;;
4214;SDS011;2121;48.062;7.850;2023-06-24T03:46:21;8.17;;;6.50;;
4214;SDS011;2121;48.062;7.850;2023-06-24T03:48:49;12.93;;;6.23;;
4214;SDS011;2121;48.062;7.850;2023-06-24T03:51:15;7.47;;;6.17;;
4214;SDS011;2121;48.062;7.850;2023-06-24T03:53:41;12.93;;;7.00;;
4214;SDS011;2121;48.062;7.850;2023-06-24T03:56:06;6.57;;;5.47;;
4214;SDS011;2121;48.062;7.850;2023-06-24T03:58:32;9.73;;;6.47;;
4214;SDS011;2121;48.062;7.850;2023-06-24T04:00:59;10.83;;;6.90;;
4214;SDS011;2121;48.062;7.850;2023-06-24T04:03:26;8.20;;;6.70;;
4214;SDS011;2121;48.062;7.850;2023-06-24T04:05:54;8.60;;;6.57;;
4214;SDS011;2121;48.062;7.850;2023-06-24T04:08:21;9.70;;;6.07;;
4214;SDS011;2121;48.062;7.850;2023-06-24T04:10:47;7.30;;;5.60;;
4214;SDS011;2121;48.062;7.850;2023-06-24T04:13:13;6.50;;;5.80;;
4214;SDS011;2121;48.062;7.850;2023-06-24T04:15:39;10.40;;;7.47;;
4214;SDS011;2121;48.062;7.850;2023-06-24T04:18:04;6.60;;;5.90;;
4214;SDS011;2121;48.062;7.850;2023-06-24T04:20:30;8.13;;;7.17;;
4214;SDS011;2121;48.062;7.850;2023-06-24T04:22:57;9.20;;;6.70;;
4214;SDS011;2121;48.062;7.850;2023-06-24T04:25:24;10.97;;;5.73;;
4214;SDS011;2121;48.062;7.850;2023-06-24T04:27:49;7.07;;;6.30;;
4214;SDS011;2121;48.062;7.850;2023-06-24T04:30:15;7.17;;;5.97;;
4214;SDS011;2121;48.062;7.850;2023-06-24T04:32:41;8.20;;;6.50;;
4214;SDS011;2121;48.062;7.850;2023-06-24T04:35:06;16.53;;;7.67;;
4214;SDS011;2121;48.062;7.850;2023-06-24T04:37:32;8.03;;;6.00;;
4214;SDS011;2121;48.062;7.850;2023-06-24T04:39:58;6.00;;;5.40;;
4214;SDS011;2121;48.062;7.850;2023-06-24T04:42:24;12.47;;;6.90;;
4214;SDS011;2121;48.062;7.850;2023-06-24T04:44:49;11.30;;;6.00;;
4214;SDS011;2121;48.062;7.850;2023-06-24T04:47:18;9.10;;;6.50;;
4214;SDS011;2121;48.062;7.850;2023-06-24T04:49:44;13.63;;;5.97;;
4214;SDS011;2121;48.062;7.850;2023-06-24T04:52:10;8.97;;;5.63;;
4214;SDS011;2121;48.062;7.850;2023-06-24T04:54:37;6.00;;;5.50;;
4214;SDS011;2121;48.062;7.850;2023-06-24T04:57:05;8.13;;;5.60;;
4214;SDS011;2121;48.062;7.850;2023-06-24T04:59:34;7.60;;;5.83;;
4214;SDS011;2121;48.062;7.850;2023-06-24T05:02:01;8.10;;;6.80;;
4214;SDS011;2121;48.062;7.850;2023-06-24T05:04:26;8.30;;;6.23;;
4214;SDS011;2121;48.062;7.850;2023-06-24T05:06:52;7.77;;;6.30;;
4214;SDS011;2121;48.062;7.850;2023-06-24T05:09:18;7.50;;;6.10;;
4214;SDS011;2121;48.062;7.850;2023-06-24T05:11:44;10.17;;;6.53;;
4214;SDS011;2121;48.062;7.850;2023-06-24T05:14:09;6.70;;;6.00;;
4214;SDS011;2121;48.062;7.850;2023-06-24T05:16:35;7.27;;;5.60;;
4214;SDS011;2121;48.062;7.850;2023-06-24T05:19:01;6.60;;;5.10;;
4214;SDS011;2121;48.062;7.850;2023-06-24T05:21:27;12.63;;;6.40;;
4214;SDS011;2121;48.062;7.850;2023-06-24T05:23:52;8.57;;;6.50;;
4214;SDS011;2121;48.062;7.850;2023-06-24T05:26:18;6.60;;;5.83;;
4214;SDS011;2121;48.062;7.850;2023-06-24T05:28:44;7.83;;;6.60;;
4214;SDS011;2121;48.062;7.850;2023-06-24T05:31:09;6.10;;;5.50;;
4214;SDS011;2121;48.062;7.850;2023-06-24T05:33:35;7.40;;;6.70;;
4214;SDS011;2121;48.062;7.850;2023-06-24T05:36:01;5.53;;;5.03;;
4214;SDS011;2121;48.062;7.850;2023-06-24T05:38:26;7.80;;;5.73;;
4214;SDS011;2121;48.062;7.850;2023-06-24T05:40:52;5.67;;;5.17;;
4214;SDS011;2121;48.062;7.850;2023-06-24T05:43:18;9.40;;;6.17;;
4214;SDS011;2121;48.062;7.850;2023-06-24T05:45:44;6.47;;;5.77;;
4214;SDS011;2121;48.062;7.850;2023-06-24T05:48:09;7.97;;;5.13;;
4214;SDS011;2121;48.062;7.850;2023-06-24T05:50:35;6.40;;;5.80;;
4214;SDS011;2121;48.062;7.850;2023-06-24T05:53:01;6.97;;;6.27;;
4214;SDS011;2121;48.062;7.850;2023-06-24T05:55:26;9.43;;;5.80;;
4214;SDS011;2121;48.062;7.850;2023-06-24T05:57:52;7.57;;;5.30;;
4214;SDS011;2121;48.062;7.850;2023-06-24T06:00:18;6.20;;;5.60;;
4214;SDS011;2121;48.062;7.850;2023-06-24T06:02:44;6.97;;;6.10;;
4214;SDS011;2121;48.062;7.850;2023-06-24T06:05:09;6.43;;;5.43;;
4214;SDS011;2121;48.062;7.850;2023-06-24T06:07:35;6.50;;;5.60;;
4214;SDS011;2121;48.062;7.850;2023-06-24T06:10:04;7.60;;;5.00;;
4214;SDS011;2121;48.062;7.850;2023-06-24T06:12:31;6.27;;;5.27;;
4214;SDS011;2121;48.062;7.850;2023-06-24T06:14:57;7.40;;;4.87;;
4214;SDS011;2121;48.062;7.850;2023-06-24T06:17:23;5.73;;;5.23;;
4214;SDS011;2121;48.062;7.850;2023-06-24T06:19:49;5.30;;;4.70;;
4214;SDS011;2121;48.062;7.850;2023-06-24T06:22:14;7.53;;;5.40;;
4214;SDS011;2121;48.062;7.850;2023-06-24T06:24:40;6.50;;;4.47;;
4214;SDS011;2121;48.062;7.850;2023-06-24T06:27:09;5.40;;;4.70;;
4214;SDS011;2121;48.062;7.850;2023-06-24T06:29:36;6.40;;;5.70;;
4214;SDS011;2121;48.062;7.850;2023-06-24T06:32:02;5.50;;;5.00;;
4214;SDS011;2121;48.062;7.850;2023-06-24T06:34:28;6.47;;;5.17;;
4214;SDS011;2121;48.062;7.850;2023-06-24T06:36:54;5.83;;;5.23;;
4214;SDS011;2121;48.062;7.850;2023-06-24T06:39:19;5.73;;;5.07;;
4214;SDS011;2121;48.062;7.850;2023-06-24T06:41:45;5.93;;;5.10;;
4214;SDS011;2121;48.062;7.850;2023-06-24T06:44:11;5.67;;;4.63;;
4214;SDS011;2121;48.062;7.850;2023-06-24T06:46:36;5.50;;;5.00;;
4214;SDS011;2121;48.062;7.850;2023-06-24T06:49:02;5.37;;;4.87;;
4214;SDS011;2121;48.062;7.850;2023-06-24T06:51:28;5.90;;;5.40;;
4214;SDS011;2121;48.062;7.850;2023-06-24T06:53:54;6.87;;;5.20;;
4214;SDS011;2121;48.062;7.850;2023-06-24T06:56:23;5.43;;;4.93;;
4214;SDS011;2121;48.062;7.850;2023-06-24T06:58:50;5.77;;;5.27;;
4214;SDS011;2121;48.062;7.850;2023-06-24T07:01:17;6.20;;;5.60;;
4214;SDS011;2121;48.062;7.850;2023-06-24T07:03:43;5.00;;;4.60;;
4214;SDS011;2121;48.062;7.850;2023-06-24T07:06:09;5.50;;;4.90;;
4214;SDS011;2121;48.062;7.850;2023-06-24T07:08:35;15.63;;;5.90;;
4214;SDS011;2121;48.062;7.850;2023-06-24T07:11:02;4.50;;;4.10;;
4214;SDS011;2121;48.062;7.850;2023-06-24T07:13:28;5.07;;;4.60;;
4214;SDS011;2121;48.062;7.850;2023-06-24T07:15:54;5.97;;;5.47;;
4214;SDS011;2121;48.062;7.850;2023-06-24T07:18:19;6.27;;;5.67;;
4214;SDS011;2121;48.062;7.850;2023-06-24T07:20:45;6.80;;;4.43;;
4214;SDS011;2121;48.062;7.850;2023-06-24T07:23:11;6.30;;;5.70;;
4214;SDS011;2121;48.062;7.850;2023-06-24T07:25:36;5.87;;;5.37;;
4214;SDS011;2121;48.062;7.850;2023-06-24T07:28:02;7.43;;;5.27;;
4214;SDS011;2121;48.062;7.850;2023-06-24T07:30:28;5.53;;;5.03;;
4214;SDS011;2121;48.062;7.850;2023-06-24T07:32:54;8.93;;;4.90;;
4214;SDS011;2121;48.062;7.850;2023-06-24T07:35:20;7.50;;;5.77;;
4214;SDS011;2121;48.062;7.850;2023-06-24T07:37:46;5.90;;;5.13;;
4214;SDS011;2121;48.062;7.850;2023-06-24T07:40:11;5.43;;;5.00;;
4214;SDS011;2121;48.062;7.850;2023-06-24T07:42:37;5.60;;;5.10;;
4214;SDS011;2121;48.062;7.850;2023-06-24T07:45:03;5.60;;;4.97;;
4214;SDS011;2121;48.062;7.850;2023-06-24T07:47:30;4.60;;;4.20;;
4214;SDS011;2121;48.062;7.850;2023-06-24T07:49:57;5.00;;;4.50;;
4214;SDS011;2121;48.062;7.850;2023-06-24T07:52:22;16.90;;;5.33;;
4214;SDS011;2121;48.062;7.850;2023-06-24T07:54:48;4.97;;;4.57;;
4214;SDS011;2121;48.062;7.850;2023-06-24T07:57:14;5.27;;;4.70;;
4214;SDS011;2121;48.062;7.850;2023-06-24T07:59:40;8.20;;;5.80;;
4214;SDS011;2121;48.062;7.850;2023-06-24T08:02:06;5.33;;;4.70;;
4214;SDS011;2121;48.062;7.850;2023-06-24T08:04:31;5.70;;;4.90;;
4214;SDS011;2121;48.062;7.850;2023-06-24T08:06:57;5.00;;;4.60;;
4214;SDS011;2121;48.062;7.850;2023-06-24T08:09:23;5.37;;;4.27;;
4214;SDS011;2121;48.062;7.850;2023-06-24T08:11:49;4.93;;;4.20;;
4214;SDS011;2121;48.062;7.850;2023-06-24T08:14:14;6.83;;;4.60;;
4214;SDS011;2121;48.062;7.850;2023-06-24T08:16:40;6.13;;;5.53;;
4214;SDS011;2121;48.062;7.850;2023-06-24T08:19:06;7.20;;;5.00;;
4214;SDS011;2121;48.062;7.850;2023-06-24T08:21:31;7.97;;;5.30;;
4214;SDS011;2121;48.062;7.850;2023-06-24T08:23:58;5.37;;;4.87;;
4214;SDS011;2121;48.062;7.850;2023-06-24T08:26:24;4.90;;;4.50;;
4214;SDS011;2121;48.062;7.850;2023-06-24T08:28:50;7.13;;;5.07;;
4214;SDS011;2121;48.062;7.850;2023-06-24T08:31:15;5.10;;;4.70;;
4214;SDS011;2121;48.062;7.850;2023-06-24T08:33:44;5.57;;;5.07;;
4214;SDS011;2121;48.062;7.850;2023-06-24T08:36:10;5.17;;;4.73;;
4214;SDS011;2121;48.062;7.850;2023-06-24T08:38:36;15.70;;;4.60;;
4214;SDS011;2121;48.062;7.850;2023-06-24T08:41:02;5.27;;;4.87;;
4214;SDS011;2121;48.062;7.850;2023-06-24T08:43:28;5.37;;;4.87;;
4214;SDS011;2121;48.062;7.850;2023-06-24T08:45:53;5.87;;;5.27;;
4214;SDS011;2121;48.062;7.850;2023-06-24T08:48:20;7.57;;;5.30;;
4214;SDS011;2121;48.062;7.850;2023-06-24T08:50:46;6.30;;;5.07;;
4214;SDS011;2121;48.062;7.850;2023-06-24T08:53:18;5.07;;;4.60;;
4214;SDS011;2121;48.062;7.850;2023-06-24T08:55:45;4.80;;;4.47;;
4214;SDS011;2121;48.062;7.850;2023-06-24T08:58:12;5.57;;;4.70;;
4214;SDS011;2121;48.062;7.850;2023-06-24T09:00:39;5.10;;;4.63;;
4214;SDS011;2121;48.062;7.850;2023-06-24T09:03:05;4.20;;;3.90;;
4214;SDS011;2121;48.062;7.850;2023-06-24T09:05:30;5.50;;;4.67;;
4214;SDS011;2121;48.062;7.850;2023-06-24T09:07:56;5.90;;;5.30;;
4214;SDS011;2121;48.062;7.850;2023-06-24T09:10:31;4.73;;;4.33;;
4214;SDS011;2121;48.062;7.850;2023-06-24T09:13:01;5.07;;;4.67;;
4214;SDS011;2121;48.062;7.850;2023-06-24T09:15:36;5.13;;;4.73;;
4214;SDS011;2121;48.062;7.850;2023-06-24T09:18:03;5.90;;;5.00;;
4214;SDS011;2121;48.062;7.850;2023-06-24T09:20:31;4.53;;;4.13;;
4214;SDS011;2121;48.062;7.850;2023-06-24T09:23:01;5.60;;;5.00;;
4214;SDS011;2121;48.062;7.850;2023-06-24T09:25:28;5.30;;;4.90;;
4214;SDS011;2121;48.062;7.850;2023-06-24T09:27:54;5.27;;;4.87;;
4214;SDS011;2121;48.062;7.850;2023-06-24T09:30:24;6.30;;;5.70;;
4214;SDS011;2121;48.062;7.850;2023-06-24T09:32:51;5.33;;;4.70;;
4214;SDS011;2121;48.062;7.850;2023-06-24T09:35:18;4.57;;;3.90;;
4214;SDS011;2121;48.062;7.850;2023-06-24T09:40:20;6.30;;;4.20;;
4214;SDS011;2121;48.062;7.850;2023-06-24T09:42:48;4.30;;;3.83;;
4214;SDS011;2121;48.062;7.850;2023-06-24T09:45:21;4.00;;;3.58;;
4214;SDS011;2121;48.062;7.850;2023-06-24T09:47:52;4.38;;;4.07;;
4214;SDS011;2121;48.062;7.850;2023-06-24T09:50:19;4.60;;;4.30;;
4214;SDS011;2121;48.062;7.850;2023-06-24T09:52:46;5.13;;;4.75;;
4214;SDS011;2121;48.062;7.850;2023-06-24T09:55:14;5.47;;;4.97;;
4214;SDS011;2121;48.062;7.850;2023-06-24T09:57:42;5.45;;;4.95;;
4214;SDS011;2121;48.062;7.850;2023-06-24T10:00:15;8.93;;;4.45;;
4214;SDS011;2121;48.062;7.850;2023-06-24T10:02:44;5.47;;;4.97;;
4214;SDS011;2121;48.062;7.850;2023-06-24T10:05:12;4.97;;;4.45;;
4214;SDS011;2121;48.062;7.850;2023-06-24T10:07:39;5.15;;;4.65;;
4214;SDS011;2121;48.062;7.850;2023-06-24T10:10:06;6.10;;;4.53;;
4214;SDS011;2121;48.062;7.850;2023-06-24T10:12:34;5.10;;;4.60;;
4214;SDS011;2121;48.062;7.850;2023-06-24T10:15:01;6.32;;;4.20;;
4214;SDS011;2121;48.062;7.850;2023-06-24T10:17:27;4.35;;;3.95;;
4214;SDS011;2121;48.062;7.850;2023-06-24T10:19:54;4.25;;;3.95;;
4214;SDS011;2121;48.062;7.850;2023-06-24T10:22:23;4.45;;;4.05;;
4214;SDS011;2121;48.062;7.850;2023-06-24T10:24:51;4.80;;;4.40;;
4214;SDS011;2121;48.062;7.850;2023-06-24T10:27:18;5.50;;;4.55;;
4214;SDS011;2121;48.062;7.850;2023-06-24T10:29:49;7.25;;;4.35;;
4214;SDS011;2121;48.062;7.850;2023-06-24T10:32:17;4.65;;;4.25;;
4214;SDS011;2121;48.062;7.850;2023-06-24T10:34:46;4.37;;;3.97;;
4214;SDS011;2121;48.062;7.850;2023-06-24T10:37:20;5.05;;;4.65;;
4214;SDS011;2121;48.062;7.850;2023-06-24T10:39:53;4.70;;;4.30;;
4214;SDS011;2121;48.062;7.850;2023-06-24T10:44:59;4.70;;;4.28;;
4214;SDS011;2121;48.062;7.850;2023-06-24T10:47:28;4.25;;;3.85;;
4214;SDS011;2121;48.062;7.850;2023-06-24T10:49:55;5.28;;;4.43;;
4214;SDS011;2121;48.062;7.850;2023-06-24T10:52:22;4.50;;;4.10;;
4214;SDS011;2121;48.062;7.850;2023-06-24T10:54:49;4.70;;;4.40;;
4214;SDS011;2121;48.062;7.850;2023-06-24T10:57:20;6.63;;;4.38;;
4214;SDS011;2121;48.062;7.850;2023-06-24T10:59:55;3.58;;;3.28;;
4214;SDS011;2121;48.062;7.850;2023-06-24T11:02:22;4.15;;;3.78;;
4214;SDS011;2121;48.062;7.850;2023-06-24T11:04:53;3.85;;;3.55;;
4214;SDS011;2121;48.062;7.850;2023-06-24T11:07:21;3.28;;;3.08;;
4214;SDS011;2121;48.062;7.850;2023-06-24T11:12:25;3.75;;;3.47;;
4214;SDS011;2121;48.062;7.850;2023-06-24T11:14:56;3.67;;;3.47;;
4214;SDS011;2121;48.062;7.850;2023-06-24T11:17:23;3.80;;;3.50;;
4214;SDS011;2121;48.062;7.850;2023-06-24T11:19:51;3.75;;;3.50;;
4214;SDS011;2121;48.062;7.850;2023-06-24T11:22:18;3.95;;;3.63;;
4214;SDS011;2121;48.062;7.850;2023-06-24T11:24:44;3.42;;;3.22;;
4214;SDS011;2121;48.062;7.850;2023-06-24T11:27:10;3.42;;;3.20;;
4214;SDS011;2121;48.062;7.850;2023-06-24T11:29:35;3.25;;;2.95;;
4214;SDS011;2121;48.062;7.850;2023-06-24T11:32:02;3.03;;;2.83;;
4214;SDS011;2121;48.062;7.850;2023-06-24T11:34:29;3.50;;;3.20;;
4214;SDS011;2121;48.062;7.850;2023-06-24T11:36:55;5.10;;;3.33;;
4214;SDS011;2121;48.062;7.850;2023-06-24T11:39:21;3.85;;;3.30;;
4214;SDS011;2121;48.062;7.850;2023-06-24T11:41:52;4.78;;;3.35;;
4214;SDS011;2121;48.062;7.850;2023-06-24T11:44:19;4.10;;;3.28;;
4214;SDS011;2121;48.062;7.850;2023-06-24T11:46:46;2.50;;;2.40;;
4214;SDS011;2121;48.062;7.850;2023-06-24T11:49:12;2.58;;;2.47;;
4214;SDS011;2121;48.062;7.850;2023-06-24T11:51:45;2.53;;;2.42;;
4214;SDS011;2121;48.062;7.850;2023-06-24T11:54:18;3.28;;;3.08;;
4214;SDS011;2121;48.062;7.850;2023-06-24T11:56:49;3.05;;;2.75;;
4214;SDS011;2121;48.062;7.850;2023-06-24T11:59:20;2.53;;;2.42;;
4214;SDS011;2121;48.062;7.850;2023-06-24T12:01:56;2.78;;;2.58;;
4214;SDS011;2121;48.062;7.850;2023-06-24T12:04:28;2.60;;;2.40;;
4214;SDS011;2121;48.062;7.850;2023-06-24T12:06:55;2.10;;;2.00;;
4214;SDS011;2121;48.062;7.850;2023-06-24T12:09:21;2.45;;;2.35;;
4214;SDS011;2121;48.062;7.850;2023-06-24T12:11:47;2.67;;;2.35;;
4214;SDS011;2121;48.062;7.850;2023-06-24T12:14:13;2.92;;;2.72;;
4214;SDS011;2121;48.062;7.850;2023-06-24T12:16:39;4.28;;;2.70;;
4214;SDS011;2121;48.062;7.850;2023-06-24T12:19:05;3.25;;;2.70;;
4214;SDS011;2121;48.062;7.850;2023-06-24T12:21:32;2.30;;;2.20;;
4214;SDS011;2121;48.062;7.850;2023-06-24T12:23:58;2.40;;;2.30;;
4214;SDS011;2121;48.062;7.850;2023-06-24T12:26:24;2.72;;;2.55;;
4214;SDS011;2121;48.062;7.850;2023-06-24T12:28:50;2.30;;;2.20;;
4214;SDS011;2121;48.062;7.850;2023-06-24T12:31:19;2.50;;;2.30;;
4214;SDS011;2121;48.062;7.850;2023-06-24T12:33:44;2.83;;;2.40;;
4214;SDS011;2121;48.062;7.850;2023-06-24T12:36:10;2.22;;;2.13;;
4214;SDS011;2121;48.062;7.850;2023-06-24T12:38:36;2.20;;;2.10;;
4214;SDS011;2121;48.062;7.850;2023-06-24T12:41:01;2.15;;;2.05;;
4214;SDS011;2121;48.062;7.850;2023-06-24T12:43:27;3.58;;;3.22;;
4214;SDS011;2121;48.062;7.850;2023-06-24T12:45:53;2.42;;;2.33;;
4214;SDS011;2121;48.062;7.850;2023-06-24T12:48:20;3.28;;;3.08;;
4214;SDS011;2121;48.062;7.850;2023-06-24T12:50:46;3.35;;;3.05;;
4214;SDS011;2121;48.062;7.850;2023-06-24T12:53:12;2.65;;;2.45;;
4214;SDS011;2121;48.062;7.850;2023-06-24T12:55:40;2.75;;;2.55;;
4214;SDS011;2121;48.062;7.850;2023-06-24T12:58:06;2.88;;;2.63;;
4214;SDS011;2121;48.062;7.850;2023-06-24T13:00:32;2.78;;;2.58;;
4214;SDS011;2121;48.062;7.850;2023-06-24T13:02:58;2.90;;;2.70;;
4214;SDS011;2121;48.062;7.850;2023-06-24T13:05:24;4.45;;;2.40;;
4214;SDS011;2121;48.062;7.850;2023-06-24T13:07:50;3.63;;;2.58;;
4214;SDS011;2121;48.062;7.850;2023-06-24T13:10:16;2.67;;;2.47;;
4214;SDS011;2121;48.062;7.850;2023-06-24T13:12:42;3.03;;;2.83;;
4214;SDS011;2121;48.062;7.850;2023-06-24T13:15:08;2.60;;;2.40;;
4214;SDS011;2121;48.062;7.850;2023-06-24T13:17:35;2.85;;;2.70;;
4214;SDS011;2121;48.062;7.850;2023-06-24T13:20:01;2.28;;;2.10;;
4214;SDS011;2121;48.062;7.850;2023-06-24T13:22:29;2.75;;;2.55;;
4214;SDS011;2121;48.062;7.850;2023-06-24T13:24:56;2.13;;;2.03;;
4214;SDS011;2121;48.062;7.850;2023-06-24T13:27:21;2.72;;;2.63;;
4214;SDS011;2121;48.062;7.850;2023-06-24T13:29:47;3.08;;;2.88;;
4214;SDS011;2121;48.062;7.850;2023-06-24T13:32:13;3.83;;;2.80;;
4214;SDS011;2121;48.062;7.850;2023-06-24T13:34:39;2.83;;;2.70;;
4214;SDS011;2121;48.062;7.850;2023-06-24T13:37:05;2.75;;;2.63;;
4214;SDS011;2121;48.062;7.850;2023-06-24T13:39:31;2.83;;;2.63;;
4214;SDS011;2121;48.062;7.850;2023-06-24T13:41:57;3.05;;;2.85;;
4214;SDS011;2121;48.062;7.850;2023-06-24T13:44:23;3.38;;;3.10;;
4214;SDS011;2121;48.062;7.850;2023-06-24T13:46:49;2.92;;;2.83;;
4214;SDS011;2121;48.062;7.850;2023-06-24T13:49:15;2.38;;;2.28;;
4214;SDS011;2121;48.062;7.850;2023-06-24T13:51:41;2.50;;;2.40;;
4214;SDS011;2121;48.062;7.850;2023-06-24T13:54:07;2.17;;;2.08;;
4214;SDS011;2121;48.062;7.850;2023-06-24T13:56:33;2.40;;;2.30;;
4214;SDS011;2121;48.062;7.850;2023-06-24T13:58:59;2.53;;;2.33;;
4214;SDS011;2121;48.062;7.850;2023-06-24T14:01:25;2.75;;;2.55;;
4214;SDS011;2121;48.062;7.850;2023-06-24T14:03:53;2.28;;;2.17;;
4214;SDS011;2121;48.062;7.850;2023-06-24T14:06:20;3.53;;;3.28;;
4214;SDS011;2121;48.062;7.850;2023-06-24T14:08:48;3.17;;;2.90;;
4214;SDS011;2121;48.062;7.850;2023-06-24T14:11:14;2.70;;;2.50;;
4214;SDS011;2121;48.062;7.850;2023-06-24T14:13:40;2.72;;;2.55;;
4214;SDS011;2121;48.062;7.850;2023-06-24T14:16:07;6.55;;;3.10;;
4214;SDS011;2121;48.062;7.850;2023-06-24T14:18:33;2.72;;;2.53;;
4214;SDS011;2121;48.062;7.850;2023-06-24T14:21:00;3.00;;;2.80;;
4214;SDS011;2121;48.062;7.850;2023-06-24T14:23:28;2.72;;;2.53;;
4214;SDS011;2121;48.062;7.850;2023-06-24T14:25:55;2.97;;;2.78;;
4214;SDS011;2121;48.062;7.850;2023-06-24T14:28:21;2.05;;;1.95;;
4214;SDS011;2121;48.062;7.850;2023-06-24T14:30:48;3.03;;;2.47;;
4214;SDS011;2121;48.062;7.850;2023-06-24T14:33:14;2.75;;;2.55;;
4214;SDS011;2121;48.062;7.850;2023-06-24T14:35:40;2.75;;;2.60;;
4214;SDS011;2121;48.062;7.850;2023-06-24T14:38:06;4.20;;;2.38;;
4214;SDS011;2121;48.062;7.850;2023-06-24T14:40:33;2.13;;;2.03;;
4214;SDS011;2121;48.062;7.850;2023-06-24T14:42:59;2.70;;;2.50;;
4214;SDS011;2121;48.062;7.850;2023-06-24T14:45:25;2.40;;;2.30;;
4214;SDS011;2121;48.062;7.850;2023-06-24T14:47:51;2.60;;;2.40;;
4214;SDS011;2121;48.062;7.850;2023-06-24T14:50:17;2.58;;;2.30;;
4214;SDS011;2121;48.062;7.850;2023-06-24T14:52:43;2.97;;;2.78;;
4214;SDS011;2121;48.062;7.850;2023-06-24T14:55:09;2.97;;;2.78;;
4214;SDS011;2121;48.062;7.850;2023-06-24T14:57:35;3.33;;;3.03;;
4214;SDS011;2121;48.062;7.850;2023-06-24T15:00:02;2.70;;;2.55;;
4214;SDS011;2121;48.062;7.850;2023-06-24T15:02:29;2.30;;;2.20;;
4214;SDS011;2121;48.062;7.850;2023-06-24T15:04:54;11.65;;;2.20;;
4214;SDS011;2121;48.062;7.850;2023-06-24T15:07:20;2.10;;;2.00;;
4214;SDS011;2121;48.062;7.850;2023-06-24T15:09:46;2.72;;;2.63;;
4214;SDS011;2121;48.062;7.850;2023-06-24T15:12:12;2.17;;;1.83;;
4214;SDS011;2121;48.062;7.850;2023-06-24T15:14:37;2.60;;;2.50;;
4214;SDS011;2121;48.062;7.850;2023-06-24T15:17:03;2.60;;;2.40;;
4214;SDS011;2121;48.062;7.850;2023-06-24T15:19:29;2.60;;;2.35;;
4214;SDS011;2121;48.062;7.850;2023-06-24T15:21:55;2.20;;;2.10;;
4214;SDS011;2121;48.062;7.850;2023-06-24T15:24:21;2.95;;;2.67;;
4214;SDS011;2121;48.062;7.850;2023-06-24T15:26:46;3.00;;;2.70;;
4214;SDS011;2121;48.062;7.850;2023-06-24T15:29:12;2.45;;;2.35;;
4214;SDS011;2121;48.062;7.850;2023-06-24T15:31:38;2.35;;;2.25;;